sensor_id;sensor_type;location;lat;lon;timestamp;P1;durP1;ratioP1;P2;durP2;ratioP2
63394;SDS011;49531;-34.520;150.798;2022-08-07T00:01:08;0.30;;;0.30;;
63394;SDS011;49531;-34.520;150.798;2022-08-07T00:03:35;0.77;;;0.35;;
63394;SDS011;49531;-34.520;150.798;2022-08-07T00:06:02;0.38;;;0.30;;
63394;SDS011;49531;-34.520;150.798;2022-08-07T00:08:30;0.63;;;0.40;;
63394;SDS011;49531;-34.520;150.798;2022-08-07T00:10:57;0.40;;;0.40;;
63394;SDS011;49531;-34.520;150.798;2022-08-07T00:13:24;0.63;;;0.32;;
63394;SDS011;49531;-34.520;150.798;2022-08-07T00:15:51;0.30;;;0.30;;
63394;SDS011;49531;-34.520;150.798;2022-08-07T00:18:20;0.30;;;0.30;;
63394;SDS011;49531;-34.520;150.798;2022-08-07T00:20:57;0.30;;;0.30;;
63394;SDS011;49531;-34.520;150.798;2022-08-07T00:23:26;0.47;;;0.30;;
63394;SDS011;49531;-34.520;150.798;2022-08-07T00:25:54;0.30;;;0.30;;
63394;SDS011;49531;-34.520;150.798;2022-08-07T00:28:22;0.30;;;0.30;;
63394;SDS011;49531;-34.520;150.798;2022-08-07T00:30:49;0.30;;;0.30;;
63394;SDS011;49531;-34.520;150.798;2022-08-07T00:33:16;0.30;;;0.30;;
63394;SDS011;49531;-34.520;150.798;2022-08-07T00:35:43;0.20;;;0.20;;
63394;SDS011;49531;-34.520;150.798;2022-08-07T00:38:10;0.40;;;0.35;;
63394;SDS011;49531;-34.520;150.798;2022-08-07T00:40:37;0.30;;;0.30;;
63394;SDS011;49531;-34.520;150.798;2022-08-07T00:43:04;0.30;;;0.30;;
63394;SDS011;49531;-34.520;150.798;2022-08-07T00:45:32;0.43;;;0.30;;
63394;SDS011;49531;-34.520;150.798;2022-08-07T00:47:59;0.30;;;0.30;;
63394;SDS011;49531;-34.520;150.798;2022-08-07T00:50:26;0.30;;;0.30;;
63394;SDS011;49531;-34.520;150.798;2022-08-07T00:52:53;0.30;;;0.30;;
63394;SDS011;49531;-34.520;150.798;2022-08-07T00:55:20;0.30;;;0.30;;
63394;SDS011;49531;-34.520;150.798;2022-08-07T00:57:48;0.30;;;0.30;;
63394;SDS011;49531;-34.520;150.798;2022-08-07T01:00:16;0.30;;;0.30;;
63394;SDS011;49531;-34.520;150.798;2022-08-07T01:02:44;0.40;;;0.40;;
63394;SDS011;49531;-34.520;150.798;2022-08-07T01:05:12;0.40;;;0.40;;
63394;SDS011;49531;-34.520;150.798;2022-08-07T01:07:40;0.38;;;0.30;;
63394;SDS011;49531;-34.520;150.798;2022-08-07T01:10:08;0.30;;;0.30;;
63394;SDS011;49531;-34.520;150.798;2022-08-07T01:12:36;0.40;;;0.40;;
63394;SDS011;49531;-34.520;150.798;2022-08-07T01:15:05;0.40;;;0.40;;
63394;SDS011;49531;-34.520;150.798;2022-08-07T01:17:32;0.40;;;0.40;;
63394;SDS011;49531;-34.520;150.798;2022-08-07T01:20:03;0.47;;;0.47;;
63394;SDS011;49531;-34.520;150.798;2022-08-07T01:22:34;0.90;;;0.60;;
63394;SDS011;49531;-34.520;150.798;2022-08-07T01:25:05;0.50;;;0.50;;
63394;SDS011;49531;-34.520;150.798;2022-08-07T01:27:34;0.47;;;0.43;;
63394;SDS011;49531;-34.520;150.798;2022-08-07T01:30:01;0.57;;;0.57;;
63394;SDS011;49531;-34.520;150.798;2022-08-07T01:32:29;0.75;;;0.63;;
63394;SDS011;49531;-34.520;150.798;2022-08-07T01:34:57;0.55;;;0.55;;
63394;SDS011;49531;-34.520;150.798;2022-08-07T01:37:25;0.77;;;0.63;;
63394;SDS011;49531;-34.520;150.798;2022-08-07T01:39:52;0.65;;;0.50;;
63394;SDS011;49531;-34.520;150.798;2022-08-07T01:42:23;0.55;;;0.55;;
63394;SDS011;49531;-34.520;150.798;2022-08-07T01:44:51;0.60;;;0.60;;
63394;SDS011;49531;-34.520;150.798;2022-08-07T01:47:18;0.80;;;0.68;;
63394;SDS011;49531;-34.520;150.798;2022-08-07T01:49:45;1.90;;;0.60;;
63394;SDS011;49531;-34.520;150.798;2022-08-07T01:52:13;0.70;;;0.70;;
63394;SDS011;49531;-34.520;150.798;2022-08-07T01:54:40;0.63;;;0.63;;
63394;SDS011;49531;-34.520;150.798;2022-08-07T01:57:18;0.73;;;0.70;;
63394;SDS011;49531;-34.520;150.798;2022-08-07T02:00:02;0.82;;;0.80;;
63394;SDS011;49531;-34.520;150.798;2022-08-07T02:02:44;1.05;;;0.80;;
63394;SDS011;49531;-34.520;150.798;2022-08-07T02:05:21;0.75;;;0.70;;
63394;SDS011;49531;-34.520;150.798;2022-08-07T02:08:03;0.90;;;0.90;;
63394;SDS011;49531;-34.520;150.798;2022-08-07T02:10:34;0.80;;;0.80;;
63394;SDS011;49531;-34.520;150.798;2022-08-07T02:13:02;0.98;;;0.90;;
63394;SDS011;49531;-34.520;150.798;2022-08-07T02:15:31;0.98;;;0.90;;
63394;SDS011;49531;-34.520;150.798;2022-08-07T02:17:59;1.10;;;1.05;;
63394;SDS011;49531;-34.520;150.798;2022-08-07T02:20:28;1.10;;;0.98;;
63394;SDS011;49531;-34.520;150.798;2022-08-07T02:22:58;1.23;;;0.90;;
63394;SDS011;49531;-34.520;150.798;2022-08-07T02:25:28;1.50;;;0.93;;
63394;SDS011;49531;-34.520;150.798;2022-08-07T02:27:57;2.45;;;1.15;;
63394;SDS011;49531;-34.520;150.798;2022-08-07T02:30:27;0.95;;;0.90;;
63394;SDS011;49531;-34.520;150.798;2022-08-07T02:32:55;0.88;;;0.88;;
63394;SDS011;49531;-34.520;150.798;2022-08-07T02:35:24;2.53;;;0.80;;
63394;SDS011;49531;-34.520;150.798;2022-08-07T02:37:53;0.80;;;0.80;;
63394;SDS011;49531;-34.520;150.798;2022-08-07T02:40:22;0.90;;;0.90;;
63394;SDS011;49531;-34.520;150.798;2022-08-07T02:42:50;1.50;;;1.00;;
63394;SDS011;49531;-34.520;150.798;2022-08-07T02:45:18;2.83;;;1.00;;
63394;SDS011;49531;-34.520;150.798;2022-08-07T02:47:47;0.90;;;0.90;;
63394;SDS011;49531;-34.520;150.798;2022-08-07T02:50:14;0.93;;;0.88;;
63394;SDS011;49531;-34.520;150.798;2022-08-07T02:52:51;0.90;;;0.90;;
63394;SDS011;49531;-34.520;150.798;2022-08-07T02:55:24;1.10;;;1.00;;
63394;SDS011;49531;-34.520;150.798;2022-08-07T02:57:52;0.80;;;0.80;;
63394;SDS011;49531;-34.520;150.798;2022-08-07T03:00:23;0.93;;;0.90;;
63394;SDS011;49531;-34.520;150.798;2022-08-07T03:02:53;1.00;;;1.00;;
63394;SDS011;49531;-34.520;150.798;2022-08-07T03:05:21;1.00;;;1.00;;
63394;SDS011;49531;-34.520;150.798;2022-08-07T03:07:49;1.25;;;0.82;;
63394;SDS011;49531;-34.520;150.798;2022-08-07T03:10:17;1.77;;;0.90;;
63394;SDS011;49531;-34.520;150.798;2022-08-07T03:12:45;0.90;;;0.90;;
63394;SDS011;49531;-34.520;150.798;2022-08-07T03:15:13;0.90;;;0.90;;
63394;SDS011;49531;-34.520;150.798;2022-08-07T03:17:41;0.70;;;0.70;;
63394;SDS011;49531;-34.520;150.798;2022-08-07T03:20:09;0.95;;;0.95;;
63394;SDS011;49531;-34.520;150.798;2022-08-07T03:22:36;0.80;;;0.80;;
63394;SDS011;49531;-34.520;150.798;2022-08-07T03:25:05;0.90;;;0.90;;
63394;SDS011;49531;-34.520;150.798;2022-08-07T03:27:33;1.00;;;0.88;;
63394;SDS011;49531;-34.520;150.798;2022-08-07T03:30:00;0.90;;;0.90;;
63394;SDS011;49531;-34.520;150.798;2022-08-07T03:32:36;0.82;;;0.82;;
63394;SDS011;49531;-34.520;150.798;2022-08-07T03:35:05;0.80;;;0.80;;
63394;SDS011;49531;-34.520;150.798;2022-08-07T03:37:42;0.95;;;0.80;;
63394;SDS011;49531;-34.520;150.798;2022-08-07T03:40:10;1.15;;;0.90;;
63394;SDS011;49531;-34.520;150.798;2022-08-07T03:42:38;0.90;;;0.90;;
63394;SDS011;49531;-34.520;150.798;2022-08-07T03:45:06;2.25;;;0.90;;
63394;SDS011;49531;-34.520;150.798;2022-08-07T03:47:35;0.90;;;0.90;;
63394;SDS011;49531;-34.520;150.798;2022-08-07T03:50:02;1.95;;;0.80;;
63394;SDS011;49531;-34.520;150.798;2022-08-07T03:52:31;0.80;;;0.80;;
63394;SDS011;49531;-34.520;150.798;2022-08-07T03:54:59;0.80;;;0.80;;
63394;SDS011;49531;-34.520;150.798;2022-08-07T03:57:28;0.80;;;0.80;;
63394;SDS011;49531;-34.520;150.798;2022-08-07T03:59:57;1.13;;;0.82;;
63394;SDS011;49531;-34.520;150.798;2022-08-07T04:02:25;0.60;;;0.60;;
63394;SDS011;49531;-34.520;150.798;2022-08-07T04:04:53;0.70;;;0.70;;
63394;SDS011;49531;-34.520;150.798;2022-08-07T04:07:21;0.70;;;0.70;;
63394;SDS011;49531;-34.520;150.798;2022-08-07T04:09:48;0.88;;;0.70;;
63394;SDS011;49531;-34.520;150.798;2022-08-07T04:12:16;0.60;;;0.60;;
63394;SDS011;49531;-34.520;150.798;2022-08-07T04:14:44;0.70;;;0.70;;
63394;SDS011;49531;-34.520;150.798;2022-08-07T04:17:12;0.80;;;0.80;;
63394;SDS011;49531;-34.520;150.798;2022-08-07T04:19:40;0.77;;;0.77;;
63394;SDS011;49531;-34.520;150.798;2022-08-07T04:22:07;0.73;;;0.73;;
63394;SDS011;49531;-34.520;150.798;2022-08-07T04:24:37;0.80;;;0.80;;
63394;SDS011;49531;-34.520;150.798;2022-08-07T04:27:05;0.88;;;0.88;;
63394;SDS011;49531;-34.520;150.798;2022-08-07T04:29:32;0.90;;;0.90;;
63394;SDS011;49531;-34.520;150.798;2022-08-07T04:31:59;1.35;;;0.88;;
63394;SDS011;49531;-34.520;150.798;2022-08-07T04:34:27;0.90;;;0.90;;
63394;SDS011;49531;-34.520;150.798;2022-08-07T04:36:55;0.90;;;0.90;;
63394;SDS011;49531;-34.520;150.798;2022-08-07T04:39:22;0.90;;;0.90;;
63394;SDS011;49531;-34.520;150.798;2022-08-07T04:41:50;0.93;;;0.90;;
63394;SDS011;49531;-34.520;150.798;2022-08-07T04:44:17;0.90;;;0.90;;
63394;SDS011;49531;-34.520;150.798;2022-08-07T04:50:04;0.90;;;0.90;;
63394;SDS011;49531;-34.520;150.798;2022-08-07T04:55:49;0.90;;;0.90;;
63394;SDS011;49531;-34.520;150.798;2022-08-07T04:58:19;1.20;;;1.10;;
63394;SDS011;49531;-34.520;150.798;2022-08-07T05:00:58;1.00;;;1.00;;
63394;SDS011;49531;-34.520;150.798;2022-08-07T05:03:40;0.90;;;0.90;;
63394;SDS011;49531;-34.520;150.798;2022-08-07T05:06:10;1.10;;;1.00;;
63394;SDS011;49531;-34.520;150.798;2022-08-07T05:09:43;1.10;;;1.10;;
63394;SDS011;49531;-34.520;150.798;2022-08-07T05:11:55;0.95;;;0.95;;
63394;SDS011;49531;-34.520;150.798;2022-08-07T05:14:31;1.00;;;1.00;;
63394;SDS011;49531;-34.520;150.798;2022-08-07T05:17:03;1.10;;;1.10;;
63394;SDS011;49531;-34.520;150.798;2022-08-07T05:19:34;0.90;;;0.90;;
63394;SDS011;49531;-34.520;150.798;2022-08-07T05:22:06;1.00;;;1.00;;
63394;SDS011;49531;-34.520;150.798;2022-08-07T05:24:34;0.93;;;0.93;;
63394;SDS011;49531;-34.520;150.798;2022-08-07T05:27:04;1.55;;;1.10;;
63394;SDS011;49531;-34.520;150.798;2022-08-07T05:29:33;1.00;;;1.00;;
63394;SDS011;49531;-34.520;150.798;2022-08-07T05:32:05;1.30;;;1.20;;
63394;SDS011;49531;-34.520;150.798;2022-08-07T05:34:34;1.40;;;1.30;;
63394;SDS011;49531;-34.520;150.798;2022-08-07T05:37:02;1.85;;;1.65;;
63394;SDS011;49531;-34.520;150.798;2022-08-07T05:39:30;1.65;;;1.55;;
63394;SDS011;49531;-34.520;150.798;2022-08-07T05:41:57;2.10;;;1.90;;
63394;SDS011;49531;-34.520;150.798;2022-08-07T05:44:25;2.95;;;2.00;;
63394;SDS011;49531;-34.520;150.798;2022-08-07T05:46:53;2.22;;;1.90;;
63394;SDS011;49531;-34.520;150.798;2022-08-07T05:49:21;3.25;;;2.05;;
63394;SDS011;49531;-34.520;150.798;2022-08-07T05:51:49;2.00;;;1.80;;
63394;SDS011;49531;-34.520;150.798;2022-08-07T05:54:16;2.13;;;1.80;;
63394;SDS011;49531;-34.520;150.798;2022-08-07T05:56:43;1.77;;;1.55;;
63394;SDS011;49531;-34.520;150.798;2022-08-07T05:59:15;2.30;;;1.70;;
63394;SDS011;49531;-34.520;150.798;2022-08-07T06:01:45;1.90;;;1.50;;
63394;SDS011;49531;-34.520;150.798;2022-08-07T06:04:16;1.73;;;1.40;;
63394;SDS011;49531;-34.520;150.798;2022-08-07T06:06:44;1.65;;;1.50;;
63394;SDS011;49531;-34.520;150.798;2022-08-07T06:09:13;1.70;;;1.58;;
63394;SDS011;49531;-34.520;150.798;2022-08-07T06:11:41;1.88;;;1.40;;
63394;SDS011;49531;-34.520;150.798;2022-08-07T06:14:10;1.98;;;1.42;;
63394;SDS011;49531;-34.520;150.798;2022-08-07T06:16:38;1.50;;;1.35;;
63394;SDS011;49531;-34.520;150.798;2022-08-07T06:19:05;1.70;;;1.30;;
63394;SDS011;49531;-34.520;150.798;2022-08-07T06:21:33;1.38;;;1.27;;
63394;SDS011;49531;-34.520;150.798;2022-08-07T06:24:02;1.45;;;1.20;;
63394;SDS011;49531;-34.520;150.798;2022-08-07T06:26:29;1.60;;;1.35;;
63394;SDS011;49531;-34.520;150.798;2022-08-07T06:28:57;1.30;;;1.20;;
63394;SDS011;49531;-34.520;150.798;2022-08-07T06:31:24;1.60;;;1.13;;
63394;SDS011;49531;-34.520;150.798;2022-08-07T06:33:52;1.38;;;1.10;;
63394;SDS011;49531;-34.520;150.798;2022-08-07T06:36:19;1.48;;;1.30;;
63394;SDS011;49531;-34.520;150.798;2022-08-07T06:38:46;2.33;;;1.10;;
63394;SDS011;49531;-34.520;150.798;2022-08-07T06:41:33;1.60;;;1.10;;
63394;SDS011;49531;-34.520;150.798;2022-08-07T06:44:05;1.20;;;1.00;;
63394;SDS011;49531;-34.520;150.798;2022-08-07T06:46:33;1.38;;;1.10;;
63394;SDS011;49531;-34.520;150.798;2022-08-07T06:49:00;2.45;;;1.20;;
63394;SDS011;49531;-34.520;150.798;2022-08-07T06:51:28;1.27;;;1.17;;
63394;SDS011;49531;-34.520;150.798;2022-08-07T06:53:58;0.90;;;0.90;;
63394;SDS011;49531;-34.520;150.798;2022-08-07T06:56:29;1.20;;;1.10;;
63394;SDS011;49531;-34.520;150.798;2022-08-07T06:59:08;1.35;;;1.10;;
63394;SDS011;49531;-34.520;150.798;2022-08-07T07:01:56;1.23;;;1.10;;
63394;SDS011;49531;-34.520;150.798;2022-08-07T07:04:24;1.52;;;1.20;;
63394;SDS011;49531;-34.520;150.798;2022-08-07T07:06:52;1.15;;;1.00;;
63394;SDS011;49531;-34.520;150.798;2022-08-07T07:09:21;2.35;;;1.08;;
63394;SDS011;49531;-34.520;150.798;2022-08-07T07:14:35;1.77;;;1.10;;
63394;SDS011;49531;-34.520;150.798;2022-08-07T07:17:10;1.42;;;1.17;;
63394;SDS011;49531;-34.520;150.798;2022-08-07T07:19:52;0.80;;;0.80;;
63394;SDS011;49531;-34.520;150.798;2022-08-07T07:22:23;0.93;;;0.93;;
63394;SDS011;49531;-34.520;150.798;2022-08-07T07:24:52;0.95;;;0.95;;
63394;SDS011;49531;-34.520;150.798;2022-08-07T07:27:20;1.00;;;0.90;;
63394;SDS011;49531;-34.520;150.798;2022-08-07T07:29:51;1.27;;;1.00;;
63394;SDS011;49531;-34.520;150.798;2022-08-07T07:32:22;1.00;;;1.00;;
63394;SDS011;49531;-34.520;150.798;2022-08-07T07:34:51;1.50;;;1.10;;
63394;SDS011;49531;-34.520;150.798;2022-08-07T07:37:22;1.15;;;1.00;;
63394;SDS011;49531;-34.520;150.798;2022-08-07T07:39:52;2.03;;;1.20;;
63394;SDS011;49531;-34.520;150.798;2022-08-07T07:42:23;0.95;;;0.95;;
63394;SDS011;49531;-34.520;150.798;2022-08-07T07:44:52;1.35;;;1.08;;
63394;SDS011;49531;-34.520;150.798;2022-08-07T07:47:20;0.93;;;0.90;;
63394;SDS011;49531;-34.520;150.798;2022-08-07T07:49:50;1.60;;;1.00;;
63394;SDS011;49531;-34.520;150.798;2022-08-07T07:52:19;1.00;;;1.00;;
63394;SDS011;49531;-34.520;150.798;2022-08-07T07:54:49;1.38;;;0.93;;
63394;SDS011;49531;-34.520;150.798;2022-08-07T07:57:20;1.10;;;1.00;;
63394;SDS011;49531;-34.520;150.798;2022-08-07T07:59:49;1.33;;;1.00;;
63394;SDS011;49531;-34.520;150.798;2022-08-07T08:02:17;1.10;;;1.00;;
63394;SDS011;49531;-34.520;150.798;2022-08-07T08:04:46;1.13;;;1.02;;
63394;SDS011;49531;-34.520;150.798;2022-08-07T08:07:13;1.17;;;1.00;;
63394;SDS011;49531;-34.520;150.798;2022-08-07T08:09:42;1.10;;;1.00;;
63394;SDS011;49531;-34.520;150.798;2022-08-07T08:12:15;1.52;;;0.90;;
63394;SDS011;49531;-34.520;150.798;2022-08-07T08:14:43;1.08;;;0.98;;
63394;SDS011;49531;-34.520;150.798;2022-08-07T08:17:11;1.95;;;1.10;;
63394;SDS011;49531;-34.520;150.798;2022-08-07T08:19:40;1.45;;;1.20;;
63394;SDS011;49531;-34.520;150.798;2022-08-07T08:22:09;1.33;;;1.20;;
63394;SDS011;49531;-34.520;150.798;2022-08-07T08:24:56;1.20;;;1.00;;
63394;SDS011;49531;-34.520;150.798;2022-08-07T08:27:42;1.67;;;1.00;;
63394;SDS011;49531;-34.520;150.798;2022-08-07T08:30:18;1.10;;;1.10;;
63394;SDS011;49531;-34.520;150.798;2022-08-07T08:39:30;1.13;;;1.00;;
63394;SDS011;49531;-34.520;150.798;2022-08-07T08:41:59;1.88;;;1.10;;
63394;SDS011;49531;-34.520;150.798;2022-08-07T08:44:47;0.90;;;0.90;;
63394;SDS011;49531;-34.520;150.798;2022-08-07T08:50:23;1.20;;;1.10;;
63394;SDS011;49531;-34.520;150.798;2022-08-07T08:58:42;1.35;;;1.00;;
63394;SDS011;49531;-34.520;150.798;2022-08-07T09:06:54;0.93;;;0.90;;
63394;SDS011;49531;-34.520;150.798;2022-08-07T09:23:33;1.67;;;1.02;;
63394;SDS011;49531;-34.520;150.798;2022-08-07T09:26:26;1.35;;;0.90;;
63394;SDS011;49531;-34.520;150.798;2022-08-07T09:29:28;1.00;;;0.90;;
63394;SDS011;49531;-34.520;150.798;2022-08-07T09:37:41;1.58;;;0.80;;
63394;SDS011;49531;-34.520;150.798;2022-08-07T09:54:25;1.73;;;0.80;;
63394;SDS011;49531;-34.520;150.798;2022-08-07T10:08:30;2.17;;;1.00;;
63394;SDS011;49531;-34.520;150.798;2022-08-07T10:14:15;1.42;;;0.70;;
63394;SDS011;49531;-34.520;150.798;2022-08-07T10:22:31;2.45;;;0.88;;
63394;SDS011;49531;-34.520;150.798;2022-08-07T10:41:54;0.93;;;0.68;;
63394;SDS011;49531;-34.520;150.798;2022-08-07T10:47:17;1.40;;;0.75;;
63394;SDS011;49531;-34.520;150.798;2022-08-07T11:03:48;1.50;;;0.85;;
63394;SDS011;49531;-34.520;150.798;2022-08-07T11:09:30;2.55;;;0.90;;
63394;SDS011;49531;-34.520;150.798;2022-08-07T11:15:13;0.98;;;0.63;;
63394;SDS011;49531;-34.520;150.798;2022-08-07T11:17:58;1.40;;;0.63;;
63394;SDS011;49531;-34.520;150.798;2022-08-07T11:23:10;2.30;;;0.70;;
63394;SDS011;49531;-34.520;150.798;2022-08-07T11:34:21;2.00;;;0.52;;
63394;SDS011;49531;-34.520;150.798;2022-08-07T11:40:11;2.70;;;0.60;;
63394;SDS011;49531;-34.520;150.798;2022-08-07T11:48:25;0.70;;;0.50;;
63394;SDS011;49531;-34.520;150.798;2022-08-07T11:59:32;1.90;;;0.73;;
63394;SDS011;49531;-34.520;150.798;2022-08-07T12:08:08;1.33;;;0.52;;
63394;SDS011;49531;-34.520;150.798;2022-08-07T12:10:44;1.50;;;0.60;;
63394;SDS011;49531;-34.520;150.798;2022-08-07T12:16:01;0.47;;;0.40;;
63394;SDS011;49531;-34.520;150.798;2022-08-07T12:18:34;1.48;;;0.50;;
63394;SDS011;49531;-34.520;150.798;2022-08-07T12:23:49;1.05;;;0.40;;
63394;SDS011;49531;-34.520;150.798;2022-08-07T12:26:43;1.10;;;0.50;;
63394;SDS011;49531;-34.520;150.798;2022-08-07T12:32:03;1.52;;;0.57;;
63394;SDS011;49531;-34.520;150.798;2022-08-07T12:35:03;2.33;;;0.68;;
63394;SDS011;49531;-34.520;150.798;2022-08-07T12:37:33;1.75;;;0.50;;
63394;SDS011;49531;-34.520;150.798;2022-08-07T12:40:04;1.23;;;0.50;;
63394;SDS011;49531;-34.520;150.798;2022-08-07T12:42:33;1.48;;;0.60;;
63394;SDS011;49531;-34.520;150.798;2022-08-07T12:45:11;1.73;;;0.50;;
63394;SDS011;49531;-34.520;150.798;2022-08-07T12:55:45;1.10;;;0.50;;
63394;SDS011;49531;-34.520;150.798;2022-08-07T12:58:13;0.90;;;0.52;;
63394;SDS011;49531;-34.520;150.798;2022-08-07T13:06:43;0.90;;;0.40;;
63394;SDS011;49531;-34.520;150.798;2022-08-07T13:10:06;1.10;;;0.50;;
63394;SDS011;49531;-34.520;150.798;2022-08-07T13:15:11;2.17;;;0.68;;
63394;SDS011;49531;-34.520;150.798;2022-08-07T13:20:22;0.68;;;0.50;;
63394;SDS011;49531;-34.520;150.798;2022-08-07T13:26:12;1.50;;;0.45;;
63394;SDS011;49531;-34.520;150.798;2022-08-07T13:31:23;2.67;;;0.40;;
63394;SDS011;49531;-34.520;150.798;2022-08-07T13:42:57;1.13;;;0.50;;
63394;SDS011;49531;-34.520;150.798;2022-08-07T13:45:27;1.80;;;0.50;;
63394;SDS011;49531;-34.520;150.798;2022-08-07T13:47:57;1.13;;;0.50;;
63394;SDS011;49531;-34.520;150.798;2022-08-07T13:50:26;1.90;;;0.50;;
63394;SDS011;49531;-34.520;150.798;2022-08-07T13:52:54;0.85;;;0.40;;
63394;SDS011;49531;-34.520;150.798;2022-08-07T13:55:23;1.65;;;0.32;;
63394;SDS011;49531;-34.520;150.798;2022-08-07T13:57:52;0.55;;;0.38;;
63394;SDS011;49531;-34.520;150.798;2022-08-07T14:00:52;1.15;;;0.43;;
63394;SDS011;49531;-34.520;150.798;2022-08-07T14:03:21;1.30;;;0.60;;
63394;SDS011;49531;-34.520;150.798;2022-08-07T14:05:51;1.52;;;0.50;;
63394;SDS011;49531;-34.520;150.798;2022-08-07T14:08:23;0.80;;;0.35;;
63394;SDS011;49531;-34.520;150.798;2022-08-07T14:10:52;3.20;;;0.50;;
63394;SDS011;49531;-34.520;150.798;2022-08-07T14:13:25;1.52;;;0.60;;
63394;SDS011;49531;-34.520;150.798;2022-08-07T14:16:05;1.52;;;0.40;;
63394;SDS011;49531;-34.520;150.798;2022-08-07T14:18:38;1.35;;;0.50;;
63394;SDS011;49531;-34.520;150.798;2022-08-07T14:21:23;0.75;;;0.40;;
63394;SDS011;49531;-34.520;150.798;2022-08-07T14:24:14;2.22;;;0.57;;
63394;SDS011;49531;-34.520;150.798;2022-08-07T14:27:03;2.08;;;0.60;;
63394;SDS011;49531;-34.520;150.798;2022-08-07T14:29:35;0.95;;;0.50;;
63394;SDS011;49531;-34.520;150.798;2022-08-07T14:32:06;1.58;;;0.40;;
63394;SDS011;49531;-34.520;150.798;2022-08-07T14:34:41;0.85;;;0.52;;
63394;SDS011;49531;-34.520;150.798;2022-08-07T14:37:11;0.65;;;0.40;;
63394;SDS011;49531;-34.520;150.798;2022-08-07T14:39:42;1.17;;;0.50;;
63394;SDS011;49531;-34.520;150.798;2022-08-07T14:42:12;1.55;;;0.40;;
63394;SDS011;49531;-34.520;150.798;2022-08-07T14:44:43;0.28;;;0.28;;
63394;SDS011;49531;-34.520;150.798;2022-08-07T14:47:15;2.33;;;0.50;;
63394;SDS011;49531;-34.520;150.798;2022-08-07T14:49:43;1.35;;;0.45;;
63394;SDS011;49531;-34.520;150.798;2022-08-07T14:52:13;0.45;;;0.40;;
63394;SDS011;49531;-34.520;150.798;2022-08-07T14:54:43;1.10;;;0.50;;
63394;SDS011;49531;-34.520;150.798;2022-08-07T14:57:14;1.42;;;0.40;;
63394;SDS011;49531;-34.520;150.798;2022-08-07T14:59:42;1.15;;;0.43;;
63394;SDS011;49531;-34.520;150.798;2022-08-07T15:02:13;1.08;;;0.45;;
63394;SDS011;49531;-34.520;150.798;2022-08-07T15:04:42;0.50;;;0.40;;
63394;SDS011;49531;-34.520;150.798;2022-08-07T15:07:15;0.68;;;0.50;;
63394;SDS011;49531;-34.520;150.798;2022-08-07T15:09:48;0.52;;;0.30;;
63394;SDS011;49531;-34.520;150.798;2022-08-07T15:12:22;1.33;;;0.50;;
63394;SDS011;49531;-34.520;150.798;2022-08-07T15:15:06;0.63;;;0.50;;
63394;SDS011;49531;-34.520;150.798;2022-08-07T15:17:43;0.47;;;0.30;;
63394;SDS011;49531;-34.520;150.798;2022-08-07T15:20:17;0.45;;;0.28;;
63394;SDS011;49531;-34.520;150.798;2022-08-07T15:22:51;1.40;;;0.40;;
63394;SDS011;49531;-34.520;150.798;2022-08-07T15:25:25;1.10;;;0.40;;
63394;SDS011;49531;-34.520;150.798;2022-08-07T15:27:59;1.25;;;0.35;;
63394;SDS011;49531;-34.520;150.798;2022-08-07T15:30:28;0.30;;;0.30;;
63394;SDS011;49531;-34.520;150.798;2022-08-07T15:32:58;0.73;;;0.40;;
63394;SDS011;49531;-34.520;150.798;2022-08-07T15:35:26;0.70;;;0.50;;
63394;SDS011;49531;-34.520;150.798;2022-08-07T15:37:57;1.10;;;0.40;;
63394;SDS011;49531;-34.520;150.798;2022-08-07T15:40:27;0.75;;;0.40;;
63394;SDS011;49531;-34.520;150.798;2022-08-07T15:43:02;0.45;;;0.30;;
63394;SDS011;49531;-34.520;150.798;2022-08-07T15:45:40;1.27;;;0.38;;
63394;SDS011;49531;-34.520;150.798;2022-08-07T15:48:15;0.75;;;0.40;;
63394;SDS011;49531;-34.520;150.798;2022-08-07T15:50:50;0.90;;;0.43;;
63394;SDS011;49531;-34.520;150.798;2022-08-07T15:55:54;1.80;;;0.40;;
63394;SDS011;49531;-34.520;150.798;2022-08-07T16:01:15;0.73;;;0.40;;
63394;SDS011;49531;-34.520;150.798;2022-08-07T16:03:52;0.40;;;0.38;;
63394;SDS011;49531;-34.520;150.798;2022-08-07T16:06:28;0.40;;;0.38;;
63394;SDS011;49531;-34.520;150.798;2022-08-07T16:09:01;0.30;;;0.30;;
63394;SDS011;49531;-34.520;150.798;2022-08-07T16:32:01;2.40;;;0.30;;
63394;SDS011;49531;-34.520;150.798;2022-08-07T16:34:54;0.93;;;0.32;;
63394;SDS011;49531;-34.520;150.798;2022-08-07T16:49:18;2.83;;;0.30;;
63394;SDS011;49531;-34.520;150.798;2022-08-07T16:51:55;2.03;;;0.38;;
63394;SDS011;49531;-34.520;150.798;2022-08-07T17:00:22;0.73;;;0.30;;
63394;SDS011;49531;-34.520;150.798;2022-08-07T17:08:48;0.85;;;0.30;;
63394;SDS011;49531;-34.520;150.798;2022-08-07T17:11:56;0.95;;;0.25;;
63394;SDS011;49531;-34.520;150.798;2022-08-07T17:14:35;0.63;;;0.30;;
63394;SDS011;49531;-34.520;150.798;2022-08-07T17:17:19;0.60;;;0.35;;
63394;SDS011;49531;-34.520;150.798;2022-08-07T17:20:08;0.82;;;0.30;;
63394;SDS011;49531;-34.520;150.798;2022-08-07T17:22:55;0.90;;;0.40;;
63394;SDS011;49531;-34.520;150.798;2022-08-07T17:25:40;0.68;;;0.50;;
63394;SDS011;49531;-34.520;150.798;2022-08-07T17:36:42;0.63;;;0.30;;
63394;SDS011;49531;-34.520;150.798;2022-08-07T17:39:51;0.98;;;0.30;;
63394;SDS011;49531;-34.520;150.798;2022-08-07T17:45:36;0.32;;;0.30;;
63394;SDS011;49531;-34.520;150.798;2022-08-07T17:48:05;0.30;;;0.30;;
63394;SDS011;49531;-34.520;150.798;2022-08-07T17:53:30;0.60;;;0.25;;
63394;SDS011;49531;-34.520;150.798;2022-08-07T18:01:20;1.60;;;0.30;;
63394;SDS011;49531;-34.520;150.798;2022-08-07T18:09:33;0.28;;;0.20;;
63394;SDS011;49531;-34.520;150.798;2022-08-07T18:17:22;2.70;;;0.30;;
63394;SDS011;49531;-34.520;150.798;2022-08-07T18:23:06;0.35;;;0.30;;
63394;SDS011;49531;-34.520;150.798;2022-08-07T18:25:20;1.05;;;0.35;;
63394;SDS011;49531;-34.520;150.798;2022-08-07T18:45:26;1.52;;;0.40;;
63394;SDS011;49531;-34.520;150.798;2022-08-07T18:48:10;1.17;;;0.50;;
63394;SDS011;49531;-34.520;150.798;2022-08-07T18:53:37;0.40;;;0.40;;
63394;SDS011;49531;-34.520;150.798;2022-08-07T18:56:56;1.38;;;0.38;;
63394;SDS011;49531;-34.520;150.798;2022-08-07T18:59:51;0.40;;;0.30;;
63394;SDS011;49531;-34.520;150.798;2022-08-07T19:05:49;0.88;;;0.30;;
63394;SDS011;49531;-34.520;150.798;2022-08-07T19:08:09;1.05;;;0.43;;
63394;SDS011;49531;-34.520;150.798;2022-08-07T19:10:46;0.50;;;0.40;;
63394;SDS011;49531;-34.520;150.798;2022-08-07T19:13:54;0.98;;;0.38;;
63394;SDS011;49531;-34.520;150.798;2022-08-07T19:22:15;0.70;;;0.30;;
63394;SDS011;49531;-34.520;150.798;2022-08-07T19:24:58;0.55;;;0.30;;
63394;SDS011;49531;-34.520;150.798;2022-08-07T19:27:29;1.27;;;0.32;;
63394;SDS011;49531;-34.520;150.798;2022-08-07T19:30:02;1.38;;;0.40;;
63394;SDS011;49531;-34.520;150.798;2022-08-07T19:32:36;1.13;;;0.30;;
63394;SDS011;49531;-34.520;150.798;2022-08-07T19:35:06;0.68;;;0.40;;
63394;SDS011;49531;-34.520;150.798;2022-08-07T19:37:44;0.68;;;0.43;;
63394;SDS011;49531;-34.520;150.798;2022-08-07T19:40:15;0.73;;;0.40;;
63394;SDS011;49531;-34.520;150.798;2022-08-07T19:42:44;1.05;;;0.40;;
63394;SDS011;49531;-34.520;150.798;2022-08-07T19:45:22;1.33;;;0.30;;
63394;SDS011;49531;-34.520;150.798;2022-08-07T19:47:55;0.77;;;0.40;;
63394;SDS011;49531;-34.520;150.798;2022-08-07T19:50:23;0.32;;;0.30;;
63394;SDS011;49531;-34.520;150.798;2022-08-07T19:52:51;0.52;;;0.40;;